Sunday, April 22, 2018, 5:57 PM EDT
Back to Local

KDAW, Skyhaven Airport

Location: Rochester, NH, United States Lat: 43.283
Local Time: 5:57 PM EDT (21:57 GMT) Lon: -70.917
Time Zone: US/Eastern Elev: 321 ft

Show me the last for .
Show Coded

Time T Td Feel RH Dir Speed Gust Alt SLP Vis Weather Sky Remarks
2018-04-22 16:51 59 16 - 18 340° 12 - 30.28 30.27 10 CLR None
2018-04-22 15:51 60 15 - 16 320° 12 - 30.28 30.28 10 CLR None
2018-04-22 14:51 59 16 - 18 310° 15 21 30.29 30.28 10 CLR None
2018-04-22 13:51 58 17 - 19 330° 13 - 30.30 30.30 10 CLR 6-hr Min Temp (2pm): 44.1°F
6-hr Max Temp (2pm): 57.9°F
2018-04-22 12:51 56 18 - 22 340° 8 - 30.31 30.30 10 CLR None
2018-04-22 11:51 54 17 - 23 330° 13 18 30.32 30.32 10 CLR None
2018-04-22 10:51 53 17 - 23 340° 12 18 30.32 30.32 10 CLR None
2018-04-22 09:51 50 18 43 27 300° 13 22 30.32 30.32 10 CLR None
2018-04-22 08:51 48 24 44 38 330° 8 - 30.33 30.32 10 CLR None
2018-04-22 07:51 44 22 40 41 290° 7 - 30.32 30.32 10 CLR 6-hr Min Temp (8am): 28.9°F
6-hr Max Temp (8am): 44.1°F
2018-04-22 06:51 35 25 29 66 320° 8 - 30.32 30.31 10 CLR None
2018-04-22 05:51 31 23 26 72 300° 5 - 30.30 30.29 10 CLR None
2018-04-22 04:51 30 24 23 78 320° 7 - 30.29 30.29 10 CLR None
2018-04-22 03:51 37 22 34 53 Variable 3 - 30.29 30.28 10 CLR None
2018-04-22 02:51 39 22 36 49 Variable 5 - 30.28 30.28 10 CLR None
2018-04-22 01:51 37 23 34 56 Variable 3 - 30.29 30.28 10 CLR 6-hr Min Temp (2am): 36.0°F
6-hr Max Temp (2am): 48.9°F
2018-04-22 00:51 38 22 - 52 - Calm - 30.29 30.29 10 CLR 24-hr Min Temp (1am): 34.0°F
24-hr Max Temp (1am): 57.0°F
2018-04-21 23:51 39 22 - 49 - Calm - 30.29 30.28 10 CLR None
2018-04-21 22:51 44 21 42 39 290° 5 - 30.28 30.28 10 CLR None
2018-04-21 21:51 45 20 - 36 - Calm - 30.28 30.27 10 CLR None
2018-04-21 20:51 47 20 45 33 320° 5 - 30.26 30.26 10 CLR None
2018-04-21 19:51 49 19 47 30 330° 6 - 30.23 30.23 10 CLR 6-hr Min Temp (8pm): 48.0°F
6-hr Max Temp (8pm): 57.0°F
2018-04-21 18:51 52 20 - 28 320° 12 21 30.20 30.20 10 CLR None

Support USWX by starting your Amazon purchase here.